createdAt,value
2018-07-19T00:00:33.651Z,20.90
2018-07-19T00:03:02.477Z,20.90
2018-07-19T00:05:31.221Z,20.80
2018-07-19T00:08:00.083Z,20.80
2018-07-19T00:12:59.157Z,20.70
2018-07-19T00:15:28.031Z,20.70
2018-07-19T00:17:56.836Z,20.60
2018-07-19T00:20:25.993Z,20.60
2018-07-19T00:22:54.792Z,20.60
2018-07-19T00:25:23.639Z,20.50
2018-07-19T00:27:52.449Z,20.60
2018-07-19T00:30:21.320Z,20.60
2018-07-19T00:32:50.150Z,20.60
2018-07-19T00:35:18.935Z,20.60
2018-07-19T00:37:47.782Z,20.60
2018-07-19T00:40:16.573Z,20.50
2018-07-19T00:42:45.371Z,20.50
2018-07-19T00:45:14.209Z,20.50
2018-07-19T00:47:43.014Z,20.50
2018-07-19T00:50:11.793Z,20.50
2018-07-19T00:52:40.612Z,20.50
2018-07-19T00:55:09.446Z,20.40
2018-07-19T00:57:38.227Z,20.40
2018-07-19T01:00:07.049Z,20.40
2018-07-19T01:02:35.854Z,20.30
2018-07-19T01:05:04.685Z,20.20
2018-07-19T01:07:33.487Z,20.00
2018-07-19T01:10:02.411Z,20.00
2018-07-19T01:12:31.210Z,19.90
2018-07-19T01:15:00.052Z,19.70
2018-07-19T01:17:28.866Z,19.60
2018-07-19T01:19:57.645Z,19.50
2018-07-19T01:22:26.453Z,19.50
2018-07-19T01:24:55.299Z,19.50
2018-07-19T01:27:24.140Z,19.50
2018-07-19T01:29:52.967Z,19.50
2018-07-19T01:32:21.782Z,19.40
2018-07-19T01:34:50.592Z,19.40
2018-07-19T01:37:19.388Z,19.30
2018-07-19T01:39:48.416Z,19.40
2018-07-19T01:42:29.955Z,19.30
2018-07-19T01:44:58.817Z,19.20
2018-07-19T01:47:27.653Z,19.00
2018-07-19T01:49:56.432Z,18.80
2018-07-19T01:52:25.234Z,18.80
2018-07-19T01:54:54.095Z,18.80
2018-07-19T01:57:22.871Z,18.80
2018-07-19T01:59:51.831Z,18.80
2018-07-19T02:02:20.835Z,18.90
2018-07-19T02:04:49.629Z,19.00
2018-07-19T02:07:18.419Z,19.00
2018-07-19T02:09:52.333Z,19.00
2018-07-19T02:12:21.136Z,19.00
2018-07-19T02:14:49.916Z,19.00
2018-07-19T02:17:18.731Z,19.10
2018-07-19T02:19:47.576Z,19.10
2018-07-19T02:22:16.381Z,19.00
2018-07-19T02:24:45.502Z,18.90
2018-07-19T02:27:14.264Z,19.00
2018-07-19T02:29:43.079Z,19.00
2018-07-19T02:32:11.919Z,19.10
2018-07-19T02:34:40.722Z,19.10
2018-07-19T02:37:09.527Z,19.10
2018-07-19T02:39:38.442Z,19.10
2018-07-19T02:42:07.246Z,19.20
2018-07-19T02:44:36.070Z,19.20
2018-07-19T02:47:04.923Z,19.10
2018-07-19T02:49:33.745Z,19.10
2018-07-19T02:52:02.537Z,19.10
2018-07-19T02:54:31.350Z,19.10
2018-07-19T02:57:00.139Z,19.10
2018-07-19T02:59:28.938Z,19.10
2018-07-19T03:01:57.788Z,19.00
2018-07-19T03:04:26.566Z,19.00
2018-07-19T03:06:55.386Z,18.90
2018-07-19T03:09:24.184Z,18.90
2018-07-19T03:11:52.986Z,18.90
2018-07-19T03:14:21.978Z,18.90
2018-07-19T03:16:50.700Z,18.90
2018-07-19T03:19:19.502Z,18.90
2018-07-19T03:21:48.297Z,18.90
2018-07-19T03:24:17.046Z,18.80
2018-07-19T03:26:45.846Z,18.70
2018-07-19T03:29:14.650Z,18.60
2018-07-19T03:31:43.566Z,18.60
2018-07-19T03:34:12.411Z,18.60
2018-07-19T03:36:41.209Z,18.50
2018-07-19T03:39:10.968Z,18.40
2018-07-19T03:41:45.058Z,18.30
2018-07-19T03:44:13.834Z,18.20
2018-07-19T03:46:42.657Z,18.30
2018-07-19T03:49:11.489Z,18.30
2018-07-19T03:51:40.339Z,18.40
2018-07-19T03:54:09.182Z,18.40
2018-07-19T03:56:38.097Z,18.30
2018-07-19T03:59:06.898Z,18.30
2018-07-19T04:01:40.967Z,18.30
2018-07-19T04:04:09.783Z,18.20
2018-07-19T04:06:38.543Z,18.20
2018-07-19T04:09:07.803Z,18.20
2018-07-19T04:11:41.858Z,18.20
2018-07-19T04:14:10.663Z,18.30
2018-07-19T04:16:39.453Z,18.30
2018-07-19T04:19:08.220Z,18.30
2018-07-19T04:21:37.057Z,18.40
2018-07-19T04:24:05.931Z,18.30
2018-07-19T04:26:34.766Z,18.30
2018-07-19T04:29:03.687Z,18.30
2018-07-19T04:31:32.633Z,18.30
2018-07-19T04:34:01.495Z,18.20
2018-07-19T04:36:30.338Z,18.20
2018-07-19T04:38:59.145Z,18.10
2018-07-19T04:41:28.273Z,18.20
2018-07-19T04:43:57.201Z,18.20
2018-07-19T04:46:26.089Z,18.30
2018-07-19T04:48:54.917Z,18.30
2018-07-19T04:51:28.882Z,18.30
2018-07-19T04:53:57.728Z,18.30
2018-07-19T04:56:26.595Z,18.40
2018-07-19T04:58:55.703Z,18.50
2018-07-19T05:01:24.704Z,18.50
2018-07-19T05:03:53.563Z,18.60
2018-07-19T05:06:22.757Z,18.70
2018-07-19T05:08:51.602Z,18.90
2018-07-19T05:11:20.491Z,18.90
2018-07-19T05:13:49.305Z,19.00
2018-07-19T05:16:18.140Z,18.90
2018-07-19T05:18:46.968Z,18.90
2018-07-19T05:21:15.774Z,18.90
2018-07-19T05:23:44.695Z,18.90
2018-07-19T05:26:13.600Z,18.90
2018-07-19T05:28:42.471Z,18.90
2018-07-19T05:31:11.509Z,18.90
2018-07-19T05:33:40.456Z,18.90
2018-07-19T05:36:09.477Z,18.90
2018-07-19T05:38:38.484Z,18.90
2018-07-19T05:41:07.809Z,18.90
2018-07-19T05:43:36.671Z,18.90
2018-07-19T05:46:05.646Z,18.90
2018-07-19T05:48:34.432Z,18.90
2018-07-19T05:51:03.235Z,18.90
2018-07-19T05:53:32.084Z,18.90
2018-07-19T05:56:00.911Z,18.90
2018-07-19T05:58:29.878Z,18.90
2018-07-19T06:01:04.079Z,18.90
2018-07-19T06:03:32.910Z,19.00
2018-07-19T06:06:01.798Z,19.00
2018-07-19T06:08:30.623Z,19.10
2018-07-19T06:11:04.645Z,19.10
2018-07-19T06:13:33.575Z,19.10
2018-07-19T06:16:02.363Z,19.10
2018-07-19T06:18:31.211Z,19.20
2018-07-19T06:21:00.066Z,19.20
2018-07-19T06:23:28.895Z,19.20
2018-07-19T06:25:57.835Z,19.30
2018-07-19T06:28:26.703Z,19.30
2018-07-19T06:31:00.844Z,19.30
2018-07-19T06:33:29.756Z,19.30
2018-07-19T06:35:59.064Z,19.40
2018-07-19T06:38:29.030Z,19.40
2018-07-19T06:40:58.009Z,19.40
2018-07-19T06:43:26.885Z,19.40
2018-07-19T06:45:55.747Z,19.40
2018-07-19T06:48:24.537Z,19.40
2018-07-19T06:50:53.378Z,19.50
2018-07-19T06:53:22.226Z,19.50
2018-07-19T06:55:51.164Z,19.60
2018-07-19T06:58:20.053Z,19.60
2018-07-19T07:01:11.392Z,19.70
2018-07-19T07:03:40.467Z,19.80
2018-07-19T07:06:09.197Z,19.90
2018-07-19T07:08:38.033Z,20.00
2018-07-19T07:11:12.054Z,20.00
2018-07-19T07:13:41.004Z,20.10
2018-07-19T07:16:09.886Z,20.00
2018-07-19T07:18:38.739Z,20.10
2018-07-19T07:21:07.740Z,20.20
2018-07-19T07:23:36.460Z,20.30
2018-07-19T07:26:05.566Z,20.60
2018-07-19T07:28:34.370Z,21.10
2018-07-19T07:31:03.157Z,21.50
2018-07-19T07:33:31.937Z,21.90
2018-07-19T07:36:00.791Z,22.10
2018-07-19T07:38:29.627Z,22.20
2018-07-19T07:40:58.409Z,22.40
2018-07-19T07:43:27.231Z,22.70
2018-07-19T07:45:56.353Z,22.80
2018-07-19T07:48:25.151Z,22.90
2018-07-19T07:50:53.926Z,23.00
2018-07-19T07:53:22.717Z,23.00
2018-07-19T07:55:51.438Z,22.90
2018-07-19T07:58:20.234Z,23.10
2018-07-19T08:00:49.091Z,23.40
2018-07-19T08:03:17.902Z,23.30
2018-07-19T08:05:46.714Z,23.30
2018-07-19T08:08:15.494Z,23.60
2018-07-19T08:10:44.817Z,23.70
2018-07-19T08:13:13.586Z,23.90
2018-07-19T08:15:42.574Z,23.90
2018-07-19T08:18:11.367Z,24.00
2018-07-19T08:20:40.219Z,24.30
2018-07-19T08:23:09.022Z,24.60
2018-07-19T08:25:37.829Z,24.80
2018-07-19T08:28:06.667Z,25.00
2018-07-19T08:30:35.482Z,25.10
2018-07-19T08:33:04.711Z,25.20
2018-07-19T08:35:33.560Z,25.30
2018-07-19T08:38:02.423Z,25.40
2018-07-19T08:40:31.414Z,25.40
2018-07-19T08:43:00.235Z,25.50
2018-07-19T08:45:29.530Z,25.50
2018-07-19T08:47:58.338Z,25.40
2018-07-19T08:50:27.404Z,25.50
2018-07-19T08:52:56.262Z,25.60
2018-07-19T08:55:25.067Z,25.70
2018-07-19T08:57:54.466Z,25.80
2018-07-19T09:00:23.358Z,25.90
2018-07-19T09:02:52.178Z,25.90
2018-07-19T09:05:21.081Z,25.90
2018-07-19T09:07:49.962Z,25.90
2018-07-19T09:10:19.190Z,26.00
2018-07-19T09:12:48.016Z,26.00
2018-07-19T09:15:16.879Z,26.00
2018-07-19T09:17:45.694Z,26.20
2018-07-19T09:20:14.697Z,26.30
2018-07-19T09:22:43.526Z,26.40
2018-07-19T09:25:12.372Z,26.60
2018-07-19T09:27:41.165Z,26.70
2018-07-19T09:30:23.596Z,26.60
2018-07-19T09:32:52.428Z,26.70
2018-07-19T09:35:21.258Z,26.80
2018-07-19T09:37:50.120Z,26.90
2018-07-19T09:40:18.958Z,26.90
2018-07-19T09:42:47.762Z,26.80
2018-07-19T09:45:16.579Z,26.80
2018-07-19T09:47:45.531Z,26.90
2018-07-19T09:50:14.567Z,27.00
2018-07-19T09:52:43.425Z,27.00
2018-07-19T09:55:12.277Z,27.00
2018-07-19T09:57:41.135Z,26.90
2018-07-19T10:00:19.379Z,26.80
2018-07-19T10:02:48.232Z,27.00
2018-07-19T10:05:17.129Z,27.10
2018-07-19T10:07:46.059Z,27.30
2018-07-19T10:10:14.902Z,27.40
2018-07-19T10:12:43.774Z,27.40
2018-07-19T10:15:12.786Z,27.40
2018-07-19T10:17:41.635Z,27.60
2018-07-19T10:20:10.465Z,27.80
2018-07-19T10:22:39.356Z,27.80
2018-07-19T10:25:08.385Z,27.80
2018-07-19T10:27:37.235Z,28.00
2018-07-19T10:30:07.532Z,28.00
2018-07-19T10:32:36.398Z,28.00
2018-07-19T10:35:05.201Z,28.20
2018-07-19T10:37:34.076Z,28.20
2018-07-19T10:40:03.311Z,28.30
2018-07-19T10:42:32.165Z,28.50
2018-07-19T10:45:00.987Z,28.50
2018-07-19T10:47:29.778Z,28.50
2018-07-19T10:49:58.611Z,28.60
2018-07-19T10:52:27.449Z,28.70
2018-07-19T10:54:56.222Z,28.80
2018-07-19T10:57:25.128Z,28.80
2018-07-19T10:59:54.065Z,28.80
2018-07-19T11:02:22.915Z,28.90
2018-07-19T11:04:51.746Z,28.90
2018-07-19T11:07:20.524Z,29.00
2018-07-19T11:09:50.162Z,29.10
2018-07-19T11:12:19.179Z,29.20
2018-07-19T11:14:47.987Z,29.20
2018-07-19T11:17:16.842Z,29.20
2018-07-19T11:19:45.714Z,29.20
2018-07-19T11:22:14.831Z,29.20
2018-07-19T11:24:43.724Z,29.20
2018-07-19T11:27:12.603Z,29.30
2018-07-19T11:29:41.464Z,29.40
2018-07-19T11:32:10.317Z,29.40
2018-07-19T11:34:39.150Z,29.40
2018-07-19T11:37:07.980Z,29.40
2018-07-19T11:39:36.801Z,29.30
2018-07-19T11:42:05.791Z,29.40
2018-07-19T11:44:34.790Z,29.50
2018-07-19T11:47:03.615Z,29.50
2018-07-19T11:49:32.598Z,29.50
2018-07-19T11:52:01.721Z,29.60
2018-07-19T11:54:30.648Z,29.70
2018-07-19T11:56:59.541Z,29.70
2018-07-19T11:59:28.607Z,29.70
2018-07-19T12:01:57.641Z,29.70
2018-07-19T12:04:26.434Z,29.60
2018-07-19T12:06:55.247Z,29.70
2018-07-19T12:09:24.058Z,29.70
2018-07-19T12:11:53.030Z,29.70
2018-07-19T12:14:21.861Z,29.90
2018-07-19T12:16:50.660Z,30.00
2018-07-19T12:19:19.426Z,30.20
2018-07-19T12:21:48.549Z,30.20
2018-07-19T12:24:17.921Z,30.20
2018-07-19T12:26:47.683Z,30.30
2018-07-19T12:29:16.490Z,30.30
2018-07-19T12:31:50.468Z,30.10
2018-07-19T12:34:19.452Z,30.20
2018-07-19T12:36:48.828Z,30.20
2018-07-19T12:39:17.659Z,30.20
2018-07-19T12:41:49.900Z,30.20
2018-07-19T12:44:20.712Z,30.20
2018-07-19T12:46:49.795Z,30.10
2018-07-19T12:49:18.614Z,30.30
2018-07-19T12:51:50.188Z,30.30
2018-07-19T12:54:20.142Z,30.30
2018-07-19T12:56:50.427Z,30.60
2018-07-19T12:59:20.669Z,30.70
2018-07-19T13:01:50.126Z,30.80
2018-07-19T13:04:18.998Z,30.90
2018-07-19T13:06:47.994Z,31.00
2018-07-19T13:09:16.825Z,31.00
2018-07-19T13:11:45.584Z,31.00
2018-07-19T13:14:14.346Z,31.10
2018-07-19T13:16:43.136Z,31.10
2018-07-19T13:19:12.006Z,31.00
2018-07-19T13:21:40.894Z,31.00
2018-07-19T13:24:09.733Z,31.00
2018-07-19T13:26:38.594Z,31.10
2018-07-19T13:29:07.458Z,31.30
2018-07-19T13:31:36.370Z,31.20
2018-07-19T13:34:05.271Z,31.20
2018-07-19T13:36:34.249Z,31.10
2018-07-19T13:39:03.061Z,31.10
2018-07-19T13:41:32.023Z,31.20
2018-07-19T13:44:00.824Z,31.20
2018-07-19T13:46:29.652Z,31.30
2018-07-19T13:48:58.968Z,31.30
2018-07-19T13:51:27.883Z,31.30
2018-07-19T13:54:20.310Z,31.30
2018-07-19T13:56:49.306Z,31.40
2018-07-19T13:59:18.428Z,31.10
2018-07-19T14:01:47.234Z,30.90
2018-07-19T14:04:16.101Z,31.10
2018-07-19T14:06:44.957Z,31.20
2018-07-19T14:09:14.905Z,31.30
2018-07-19T14:11:43.739Z,31.50
2018-07-19T14:14:12.522Z,31.60
2018-07-19T14:16:41.311Z,31.60
2018-07-19T14:19:10.152Z,31.60
2018-07-19T14:21:39.274Z,31.50
2018-07-19T14:24:08.778Z,31.10
2018-07-19T14:26:37.575Z,30.60
2018-07-19T14:29:06.354Z,30.40
2018-07-19T14:31:35.248Z,30.20
2018-07-19T14:34:04.075Z,30.20
2018-07-19T14:36:32.899Z,30.20
2018-07-19T14:39:01.875Z,30.10
2018-07-19T14:41:35.856Z,30.20
2018-07-19T14:44:04.986Z,30.30
2018-07-19T14:46:33.743Z,30.30
2018-07-19T14:49:02.513Z,30.60
2018-07-19T14:51:31.348Z,30.80
2018-07-19T14:54:00.209Z,30.80
2018-07-19T14:56:29.039Z,30.80
2018-07-19T14:58:57.949Z,30.50
2018-07-19T15:01:26.828Z,30.30
2018-07-19T15:03:55.658Z,30.10
2018-07-19T15:06:24.421Z,29.90
2018-07-19T15:08:53.346Z,29.70
2018-07-19T15:11:27.409Z,29.60
2018-07-19T15:13:56.218Z,29.60
2018-07-19T15:16:25.005Z,29.60
2018-07-19T15:18:53.863Z,29.60
2018-07-19T15:21:22.687Z,29.60
2018-07-19T15:23:51.537Z,29.50
2018-07-19T15:26:20.383Z,29.50
2018-07-19T15:28:49.271Z,29.40
2018-07-19T15:31:18.774Z,29.40
2018-07-19T15:33:48.597Z,29.40
2018-07-19T15:36:17.385Z,29.50
2018-07-19T15:38:46.204Z,29.50
2018-07-19T15:41:20.259Z,29.60
2018-07-19T15:43:49.086Z,29.70
2018-07-19T15:46:18.034Z,29.80
2018-07-19T15:48:47.076Z,29.80
2018-07-19T15:51:16.291Z,29.80
2018-07-19T15:53:45.096Z,29.80
2018-07-19T15:56:13.911Z,29.80
2018-07-19T15:58:42.713Z,29.80
2018-07-19T16:01:11.527Z,29.70
2018-07-19T16:03:40.573Z,29.70
2018-07-19T16:06:09.589Z,29.70
2018-07-19T16:08:38.367Z,29.70
2018-07-19T16:11:07.389Z,29.70
2018-07-19T16:13:36.081Z,29.60
2018-07-19T16:16:04.871Z,29.50
2018-07-19T16:18:33.667Z,29.40
2018-07-19T16:21:07.763Z,29.30
2018-07-19T16:23:36.631Z,29.20
2018-07-19T16:26:05.518Z,29.20
2018-07-19T16:28:37.216Z,29.20
2018-07-19T16:31:06.217Z,29.10
2018-07-19T16:33:35.111Z,29.10
2018-07-19T16:36:03.964Z,29.10
2018-07-19T16:38:32.779Z,29.10
2018-07-19T16:41:01.594Z,29.10
2018-07-19T16:43:30.382Z,29.20
2018-07-19T16:45:59.231Z,29.10
2018-07-19T16:48:28.656Z,29.10
2018-07-19T16:50:57.492Z,29.10
2018-07-19T16:53:26.292Z,29.10
2018-07-19T16:55:55.127Z,29.00
2018-07-19T16:58:23.949Z,29.00
2018-07-19T17:00:53.113Z,29.00
2018-07-19T17:03:21.943Z,29.00
2018-07-19T17:05:50.742Z,29.00
2018-07-19T17:08:19.554Z,28.80
2018-07-19T17:10:48.373Z,28.80
2018-07-19T17:13:17.137Z,28.70
2018-07-19T17:15:45.927Z,28.70
2018-07-19T17:18:14.735Z,28.70
2018-07-19T17:20:43.523Z,28.60
2018-07-19T17:23:12.335Z,28.40
2018-07-19T17:25:41.144Z,28.30
2018-07-19T17:28:10.017Z,28.20
2018-07-19T17:30:38.907Z,28.20
2018-07-19T17:33:07.759Z,28.20
2018-07-19T17:35:36.572Z,28.20
2018-07-19T17:38:05.867Z,28.20
2018-07-19T17:40:39.786Z,28.00
2018-07-19T17:43:08.622Z,27.70
2018-07-19T17:45:37.450Z,27.40
2018-07-19T17:48:06.307Z,26.80
2018-07-19T17:50:35.087Z,25.90
2018-07-19T17:53:03.870Z,25.20
2018-07-19T17:55:32.688Z,24.70
2018-07-19T17:58:01.462Z,24.60
2018-07-19T18:00:30.239Z,24.40
2018-07-19T18:02:58.984Z,24.30
2018-07-19T18:05:27.812Z,24.20
2018-07-19T18:07:56.726Z,24.00
2018-07-19T18:10:25.579Z,24.00
2018-07-19T18:12:54.789Z,24.00
2018-07-19T18:15:23.554Z,24.00
2018-07-19T18:17:52.354Z,24.10
2018-07-19T18:20:21.231Z,24.20
2018-07-19T18:22:50.010Z,24.30
2018-07-19T18:25:18.827Z,24.30
2018-07-19T18:27:47.643Z,24.30
2018-07-19T18:30:16.606Z,24.30
2018-07-19T18:32:45.379Z,24.20
2018-07-19T18:35:14.121Z,24.20
2018-07-19T18:37:42.937Z,24.10
2018-07-19T18:40:11.802Z,24.10
2018-07-19T18:42:40.576Z,24.10
2018-07-19T18:45:09.356Z,24.00
2018-07-19T18:47:38.140Z,24.00
2018-07-19T18:50:07.043Z,24.00
2018-07-19T18:52:35.823Z,24.00
2018-07-19T18:55:04.657Z,24.00
2018-07-19T18:57:33.470Z,24.10
2018-07-19T19:00:02.227Z,24.10
2018-07-19T19:02:31.028Z,24.10
2018-07-19T19:04:59.897Z,24.00
2018-07-19T19:07:28.698Z,23.80
2018-07-19T19:09:57.639Z,23.70
2018-07-19T19:12:31.647Z,23.60
2018-07-19T19:15:00.438Z,23.70
2018-07-19T19:17:29.229Z,23.70
2018-07-19T19:19:58.063Z,23.60
2018-07-19T19:22:26.899Z,23.50
2018-07-19T19:24:55.723Z,23.50
2018-07-19T19:27:24.483Z,23.40
2018-07-19T19:29:53.297Z,23.20
2018-07-19T19:32:22.349Z,23.20
2018-07-19T19:34:51.104Z,23.00
2018-07-19T19:37:20.006Z,22.80
2018-07-19T19:39:48.765Z,22.50
2018-07-19T19:42:17.594Z,22.30
2018-07-19T19:44:46.415Z,22.00
2018-07-19T19:47:15.166Z,22.00
2018-07-19T19:49:43.924Z,22.00
2018-07-19T19:52:13.000Z,21.90
2018-07-19T19:54:41.810Z,22.00
2018-07-19T19:57:10.596Z,22.00
2018-07-19T19:59:39.385Z,22.10
2018-07-19T20:02:08.153Z,22.10
2018-07-19T20:04:36.964Z,22.20
2018-07-19T20:07:05.747Z,22.20
2018-07-19T20:09:34.554Z,22.20
2018-07-19T20:12:03.367Z,22.30
2018-07-19T20:14:32.141Z,22.30
2018-07-19T20:17:00.973Z,22.30
2018-07-19T20:19:29.813Z,22.30
2018-07-19T20:21:58.797Z,22.20
2018-07-19T20:24:27.629Z,22.10
2018-07-19T20:26:56.374Z,22.00
2018-07-19T20:29:25.161Z,22.00
2018-07-19T20:33:23.198Z,22.10
2018-07-19T20:35:52.030Z,22.10
2018-07-19T20:38:20.834Z,22.10
2018-07-19T20:40:49.886Z,22.10
2018-07-19T20:43:18.655Z,22.10
2018-07-19T20:45:47.470Z,22.10
2018-07-19T20:48:16.268Z,22.10
2018-07-19T20:50:45.043Z,22.10
2018-07-19T20:53:13.911Z,22.10
2018-07-19T20:55:42.758Z,22.10
2018-07-19T20:58:11.606Z,22.10
2018-07-19T21:00:40.411Z,22.10
2018-07-19T21:03:09.198Z,22.10
2018-07-19T21:05:37.986Z,22.10
2018-07-19T21:08:06.744Z,22.10
2018-07-19T21:10:35.672Z,22.20
2018-07-19T21:13:04.457Z,22.20
2018-07-19T21:15:33.239Z,22.30
2018-07-19T21:18:01.961Z,22.30
2018-07-19T21:20:30.978Z,22.20
2018-07-19T21:23:14.046Z,22.10
2018-07-19T21:25:42.833Z,22.10
2018-07-19T21:28:11.545Z,22.10
2018-07-19T21:30:40.285Z,22.00
2018-07-19T21:33:09.071Z,22.00
2018-07-19T21:35:37.856Z,22.10
2018-07-19T21:38:06.667Z,22.10
2018-07-19T21:40:35.532Z,22.10
2018-07-19T21:43:04.411Z,22.00
2018-07-19T21:45:33.219Z,21.90
2018-07-19T21:48:02.122Z,21.80
2018-07-19T21:50:31.214Z,21.80
2018-07-19T21:53:00.008Z,21.70
2018-07-19T21:55:28.770Z,21.70
2018-07-19T21:57:57.516Z,21.70
2018-07-19T22:00:31.445Z,21.70
2018-07-19T22:03:01.595Z,21.70
2018-07-19T22:05:30.378Z,21.70
2018-07-19T22:07:59.153Z,21.80
2018-07-19T22:10:28.001Z,21.80
2018-07-19T22:12:56.742Z,21.90
2018-07-19T22:15:25.556Z,21.80
2018-07-19T22:17:54.344Z,21.80
2018-07-19T22:20:23.450Z,21.90
2018-07-19T22:22:52.209Z,21.80
2018-07-19T22:25:20.998Z,21.80
2018-07-19T22:27:49.942Z,21.80
2018-07-19T22:30:18.792Z,21.70
2018-07-19T22:32:47.569Z,21.70
2018-07-19T22:35:16.367Z,21.60
2018-07-19T22:37:45.132Z,21.60
2018-07-19T22:40:13.935Z,21.60
2018-07-19T22:42:42.687Z,21.60
2018-07-19T22:45:11.481Z,21.60
2018-07-19T22:47:40.260Z,21.60
2018-07-19T22:50:09.064Z,21.60
2018-07-19T22:52:37.851Z,21.60
2018-07-19T22:55:06.683Z,21.60
2018-07-19T22:57:35.478Z,21.60
2018-07-19T23:00:04.331Z,21.60
2018-07-19T23:02:33.189Z,21.60
2018-07-19T23:05:01.975Z,21.60
2018-07-19T23:07:30.714Z,21.50
2018-07-19T23:09:59.498Z,21.50
2018-07-19T23:12:28.576Z,21.50
2018-07-19T23:14:57.286Z,21.40
2018-07-19T23:17:26.026Z,21.40
2018-07-19T23:19:54.818Z,21.30
2018-07-19T23:22:23.887Z,21.40
2018-07-19T23:24:52.722Z,21.30
2018-07-19T23:27:21.512Z,21.30
2018-07-19T23:29:50.293Z,21.30
2018-07-19T23:32:19.187Z,21.30
2018-07-19T23:34:48.437Z,21.30
2018-07-19T23:37:20.515Z,21.30
2018-07-19T23:39:54.563Z,21.40
2018-07-19T23:42:28.349Z,21.30
2018-07-19T23:47:04.212Z,21.40
2018-07-19T23:49:33.060Z,21.40
2018-07-19T23:52:01.994Z,21.40
2018-07-19T23:54:30.810Z,21.40
2018-07-19T23:56:59.582Z,21.40
2018-07-19T23:59:28.500Z,21.40
